sensor_id;sensor_type;location;lat;lon;timestamp;pressure;altitude;pressure_sealevel;temperature;humidity
67109;BME280;54027;50.786;7.058;2022-08-27T00:02:16;101137.69;;;19.32;67.30
67109;BME280;54027;50.786;7.058;2022-08-27T00:04:41;101133.78;;;19.22;67.64
67109;BME280;54027;50.786;7.058;2022-08-27T00:07:07;101139.66;;;19.27;67.65
67109;BME280;54027;50.786;7.058;2022-08-27T00:09:33;101143.22;;;19.26;67.67
67109;BME280;54027;50.786;7.058;2022-08-27T00:11:58;101131.97;;;19.22;67.93
67109;BME280;54027;50.786;7.058;2022-08-27T00:14:24;101131.69;;;19.29;67.41
67109;BME280;54027;50.786;7.058;2022-08-27T00:16:50;101133.53;;;19.26;67.89
67109;BME280;54027;50.786;7.058;2022-08-27T00:19:15;101134.00;;;19.17;68.17
67109;BME280;54027;50.786;7.058;2022-08-27T00:21:41;101136.28;;;19.25;67.83
67109;BME280;54027;50.786;7.058;2022-08-27T00:24:06;101132.84;;;19.23;68.27
67109;BME280;54027;50.786;7.058;2022-08-27T00:26:31;101137.34;;;19.21;68.35
67109;BME280;54027;50.786;7.058;2022-08-27T00:28:57;101132.06;;;19.21;68.08
67109;BME280;54027;50.786;7.058;2022-08-27T00:31:23;101125.03;;;19.21;68.16
67109;BME280;54027;50.786;7.058;2022-08-27T00:33:48;101134.63;;;19.22;68.02
67109;BME280;54027;50.786;7.058;2022-08-27T00:36:13;101125.94;;;19.20;68.05
67109;BME280;54027;50.786;7.058;2022-08-27T00:38:39;101130.22;;;19.23;67.99
67109;BME280;54027;50.786;7.058;2022-08-27T00:41:05;101124.09;;;19.22;67.62
67109;BME280;54027;50.786;7.058;2022-08-27T00:46:20;101128.84;;;19.16;67.99
67109;BME280;54027;50.786;7.058;2022-08-27T00:48:47;101133.94;;;19.19;68.01
67109;BME280;54027;50.786;7.058;2022-08-27T00:51:13;101127.88;;;19.17;67.94
67109;BME280;54027;50.786;7.058;2022-08-27T00:53:38;101129.34;;;19.22;67.89
67109;BME280;54027;50.786;7.058;2022-08-27T00:56:06;101129.44;;;19.21;68.46
67109;BME280;54027;50.786;7.058;2022-08-27T00:58:39;101127.13;;;19.15;68.66
67109;BME280;54027;50.786;7.058;2022-08-27T01:01:06;101127.19;;;19.13;68.91
67109;BME280;54027;50.786;7.058;2022-08-27T01:03:33;101128.28;;;19.09;69.31
67109;BME280;54027;50.786;7.058;2022-08-27T01:05:59;101138.81;;;19.09;69.22
67109;BME280;54027;50.786;7.058;2022-08-27T01:08:27;101139.03;;;19.05;69.33
67109;BME280;54027;50.786;7.058;2022-08-27T01:10:53;101133.09;;;19.01;69.86
67109;BME280;54027;50.786;7.058;2022-08-27T01:13:21;101134.31;;;19.11;68.94
67109;BME280;54027;50.786;7.058;2022-08-27T01:15:48;101131.13;;;19.05;69.29
67109;BME280;54027;50.786;7.058;2022-08-27T01:18:13;101130.97;;;19.08;69.71
67109;BME280;54027;50.786;7.058;2022-08-27T01:21:25;101130.53;;;19.00;70.13
67109;BME280;54027;50.786;7.058;2022-08-27T01:23:35;101124.66;;;18.95;70.16
67109;BME280;54027;50.786;7.058;2022-08-27T01:26:03;101121.22;;;18.93;70.05
67109;BME280;54027;50.786;7.058;2022-08-27T01:28:29;101117.34;;;19.00;69.33
67109;BME280;54027;50.786;7.058;2022-08-27T01:30:55;101115.50;;;19.02;69.10
67109;BME280;54027;50.786;7.058;2022-08-27T01:33:20;101112.78;;;19.03;69.04
67109;BME280;54027;50.786;7.058;2022-08-27T01:35:47;101115.28;;;18.89;69.70
67109;BME280;54027;50.786;7.058;2022-08-27T01:38:13;101105.97;;;18.99;69.27
67109;BME280;54027;50.786;7.058;2022-08-27T01:40:39;101113.09;;;18.97;69.27
67109;BME280;54027;50.786;7.058;2022-08-27T01:43:05;101103.19;;;19.02;69.02
67109;BME280;54027;50.786;7.058;2022-08-27T01:45:32;101106.69;;;18.86;69.71
67109;BME280;54027;50.786;7.058;2022-08-27T01:47:58;101111.69;;;18.90;69.39
67109;BME280;54027;50.786;7.058;2022-08-27T01:50:34;101100.94;;;18.95;69.30
67109;BME280;54027;50.786;7.058;2022-08-27T01:53:21;101109.00;;;18.92;69.62
67109;BME280;54027;50.786;7.058;2022-08-27T01:55:45;101104.97;;;19.02;69.17
67109;BME280;54027;50.786;7.058;2022-08-27T01:58:11;101104.09;;;18.84;70.01
67109;BME280;54027;50.786;7.058;2022-08-27T02:00:37;101109.59;;;18.80;70.04
67109;BME280;54027;50.786;7.058;2022-08-27T02:03:04;101096.50;;;18.78;70.03
67109;BME280;54027;50.786;7.058;2022-08-27T02:05:30;101095.28;;;18.85;69.96
67109;BME280;54027;50.786;7.058;2022-08-27T02:07:55;101100.00;;;18.79;70.05
67109;BME280;54027;50.786;7.058;2022-08-27T02:10:22;101096.44;;;18.80;69.78
67109;BME280;54027;50.786;7.058;2022-08-27T02:12:48;101093.97;;;18.77;70.28
67109;BME280;54027;50.786;7.058;2022-08-27T02:15:13;101094.38;;;18.86;70.08
67109;BME280;54027;50.786;7.058;2022-08-27T02:17:39;101102.00;;;18.74;70.32
67109;BME280;54027;50.786;7.058;2022-08-27T02:20:05;101100.25;;;18.74;69.92
67109;BME280;54027;50.786;7.058;2022-08-27T02:22:32;101097.38;;;18.79;69.88
67109;BME280;54027;50.786;7.058;2022-08-27T02:24:57;101094.19;;;18.72;70.22
67109;BME280;54027;50.786;7.058;2022-08-27T02:27:23;101084.28;;;18.77;69.92
67109;BME280;54027;50.786;7.058;2022-08-27T02:29:48;101088.91;;;18.72;70.19
67109;BME280;54027;50.786;7.058;2022-08-27T02:32:15;101092.72;;;18.66;70.08
67109;BME280;54027;50.786;7.058;2022-08-27T02:34:40;101094.09;;;18.56;70.25
67109;BME280;54027;50.786;7.058;2022-08-27T02:37:05;101087.75;;;18.60;70.41
67109;BME280;54027;50.786;7.058;2022-08-27T02:39:31;101086.72;;;18.63;70.18
67109;BME280;54027;50.786;7.058;2022-08-27T02:41:57;101090.06;;;18.66;69.77
67109;BME280;54027;50.786;7.058;2022-08-27T02:44:22;101095.50;;;18.63;70.00
67109;BME280;54027;50.786;7.058;2022-08-27T02:46:48;101085.47;;;18.72;69.80
67109;BME280;54027;50.786;7.058;2022-08-27T02:49:13;101090.56;;;18.75;69.66
67109;BME280;54027;50.786;7.058;2022-08-27T02:51:39;101093.19;;;18.75;69.59
67109;BME280;54027;50.786;7.058;2022-08-27T02:54:04;101089.06;;;18.69;69.35
67109;BME280;54027;50.786;7.058;2022-08-27T02:56:29;101085.34;;;18.56;69.89
67109;BME280;54027;50.786;7.058;2022-08-27T02:58:55;101092.25;;;18.58;69.49
67109;BME280;54027;50.786;7.058;2022-08-27T03:01:20;101087.69;;;18.62;69.53
67109;BME280;54027;50.786;7.058;2022-08-27T03:03:46;101092.50;;;18.71;68.90
67109;BME280;54027;50.786;7.058;2022-08-27T03:06:11;101090.38;;;18.60;69.58
67109;BME280;54027;50.786;7.058;2022-08-27T03:08:37;101086.53;;;18.67;69.14
67109;BME280;54027;50.786;7.058;2022-08-27T03:11:02;101089.31;;;18.64;69.14
67109;BME280;54027;50.786;7.058;2022-08-27T03:13:27;101084.81;;;18.66;69.52
67109;BME280;54027;50.786;7.058;2022-08-27T03:15:53;101085.81;;;18.64;69.58
67109;BME280;54027;50.786;7.058;2022-08-27T03:18:21;101086.13;;;18.58;69.49
67109;BME280;54027;50.786;7.058;2022-08-27T03:20:48;101086.59;;;18.66;69.19
67109;BME280;54027;50.786;7.058;2022-08-27T03:23:14;101082.97;;;18.68;69.31
67109;BME280;54027;50.786;7.058;2022-08-27T03:25:44;101087.75;;;18.60;69.53
67109;BME280;54027;50.786;7.058;2022-08-27T03:28:11;101082.81;;;18.72;68.80
67109;BME280;54027;50.786;7.058;2022-08-27T03:30:38;101084.28;;;18.77;68.63
67109;BME280;54027;50.786;7.058;2022-08-27T03:33:04;101083.59;;;18.74;68.41
67109;BME280;54027;50.786;7.058;2022-08-27T03:35:29;101084.50;;;18.73;68.41
67109;BME280;54027;50.786;7.058;2022-08-27T03:37:54;101088.53;;;18.62;68.38
67109;BME280;54027;50.786;7.058;2022-08-27T03:40:19;101084.03;;;18.64;68.26
67109;BME280;54027;50.786;7.058;2022-08-27T03:42:45;101087.59;;;18.63;68.22
67109;BME280;54027;50.786;7.058;2022-08-27T03:45:10;101088.28;;;18.50;68.22
67109;BME280;54027;50.786;7.058;2022-08-27T03:47:36;101083.56;;;18.56;68.03
67109;BME280;54027;50.786;7.058;2022-08-27T03:50:02;101082.09;;;18.51;68.51
67109;BME280;54027;50.786;7.058;2022-08-27T03:52:28;101089.59;;;18.58;68.31
67109;BME280;54027;50.786;7.058;2022-08-27T03:54:53;101089.56;;;18.60;68.26
67109;BME280;54027;50.786;7.058;2022-08-27T03:57:19;101094.56;;;18.64;68.51
67109;BME280;54027;50.786;7.058;2022-08-27T03:59:44;101092.94;;;18.62;68.04
67109;BME280;54027;50.786;7.058;2022-08-27T04:02:10;101089.31;;;18.64;67.49
67109;BME280;54027;50.786;7.058;2022-08-27T04:04:35;101092.34;;;18.57;67.58
67109;BME280;54027;50.786;7.058;2022-08-27T04:07:00;101095.59;;;18.62;67.53
67109;BME280;54027;50.786;7.058;2022-08-27T04:09:26;101092.09;;;18.61;67.14
67109;BME280;54027;50.786;7.058;2022-08-27T04:11:51;101099.28;;;18.58;66.98
67109;BME280;54027;50.786;7.058;2022-08-27T04:14:17;101102.00;;;18.56;66.68
67109;BME280;54027;50.786;7.058;2022-08-27T04:16:43;101106.25;;;18.40;66.62
67109;BME280;54027;50.786;7.058;2022-08-27T04:19:08;101096.31;;;18.47;66.65
67109;BME280;54027;50.786;7.058;2022-08-27T04:21:34;101105.78;;;18.51;66.51
67109;BME280;54027;50.786;7.058;2022-08-27T04:23:59;101105.53;;;18.55;66.41
67109;BME280;54027;50.786;7.058;2022-08-27T04:26:25;101111.03;;;18.51;66.56
67109;BME280;54027;50.786;7.058;2022-08-27T04:28:50;101114.59;;;18.50;66.74
67109;BME280;54027;50.786;7.058;2022-08-27T04:31:16;101114.50;;;18.51;66.16
67109;BME280;54027;50.786;7.058;2022-08-27T04:33:42;101119.00;;;18.49;66.45
67109;BME280;54027;50.786;7.058;2022-08-27T04:36:08;101118.22;;;18.47;66.32
67109;BME280;54027;50.786;7.058;2022-08-27T04:38:34;101119.63;;;18.54;66.31
67109;BME280;54027;50.786;7.058;2022-08-27T04:41:05;101114.59;;;18.50;66.29
67109;BME280;54027;50.786;7.058;2022-08-27T04:43:44;101126.59;;;18.55;66.29
67109;BME280;54027;50.786;7.058;2022-08-27T04:46:09;101121.41;;;18.54;66.50
67109;BME280;54027;50.786;7.058;2022-08-27T04:48:34;101116.94;;;18.56;66.16
67109;BME280;54027;50.786;7.058;2022-08-27T04:51:00;101109.59;;;18.62;66.08
67109;BME280;54027;50.786;7.058;2022-08-27T04:53:25;101125.59;;;18.58;66.51
67109;BME280;54027;50.786;7.058;2022-08-27T04:55:51;101128.59;;;18.50;66.99
67109;BME280;54027;50.786;7.058;2022-08-27T04:58:18;101130.09;;;18.56;66.81
67109;BME280;54027;50.786;7.058;2022-08-27T05:00:51;101129.38;;;18.52;67.24
67109;BME280;54027;50.786;7.058;2022-08-27T05:03:19;101127.50;;;18.54;67.69
67109;BME280;54027;50.786;7.058;2022-08-27T05:05:46;101127.38;;;18.57;66.87
67109;BME280;54027;50.786;7.058;2022-08-27T05:08:11;101133.44;;;18.59;66.99
67109;BME280;54027;50.786;7.058;2022-08-27T05:10:40;101134.44;;;18.57;67.27
67109;BME280;54027;50.786;7.058;2022-08-27T05:13:06;101139.03;;;18.52;67.40
67109;BME280;54027;50.786;7.058;2022-08-27T05:15:31;101137.25;;;18.52;67.47
67109;BME280;54027;50.786;7.058;2022-08-27T05:17:57;101138.25;;;18.50;67.96
67109;BME280;54027;50.786;7.058;2022-08-27T05:20:25;101141.09;;;18.45;67.89
67109;BME280;54027;50.786;7.058;2022-08-27T05:22:50;101138.88;;;18.55;67.31
67109;BME280;54027;50.786;7.058;2022-08-27T05:25:15;101144.94;;;18.38;67.73
67109;BME280;54027;50.786;7.058;2022-08-27T05:27:41;101141.03;;;18.47;67.32
67109;BME280;54027;50.786;7.058;2022-08-27T05:30:06;101141.09;;;18.45;67.35
67109;BME280;54027;50.786;7.058;2022-08-27T05:32:32;101142.81;;;18.46;67.77
67109;BME280;54027;50.786;7.058;2022-08-27T05:34:57;101137.50;;;18.48;67.63
67109;BME280;54027;50.786;7.058;2022-08-27T05:37:23;101145.78;;;18.39;68.46
67109;BME280;54027;50.786;7.058;2022-08-27T05:39:48;101132.94;;;18.33;68.50
67109;BME280;54027;50.786;7.058;2022-08-27T05:42:13;101134.41;;;18.38;68.52
67109;BME280;54027;50.786;7.058;2022-08-27T05:44:38;101134.78;;;18.49;68.11
67109;BME280;54027;50.786;7.058;2022-08-27T05:47:04;101132.00;;;18.52;68.06
67109;BME280;54027;50.786;7.058;2022-08-27T05:49:29;101134.19;;;18.43;68.08
67109;BME280;54027;50.786;7.058;2022-08-27T05:51:55;101132.56;;;18.40;68.57
67109;BME280;54027;50.786;7.058;2022-08-27T05:54:21;101127.94;;;18.45;68.15
67109;BME280;54027;50.786;7.058;2022-08-27T05:56:47;101134.94;;;18.46;68.62
67109;BME280;54027;50.786;7.058;2022-08-27T05:59:13;101136.41;;;18.52;68.72
67109;BME280;54027;50.786;7.058;2022-08-27T06:01:57;101127.03;;;18.46;68.92
67109;BME280;54027;50.786;7.058;2022-08-27T06:04:23;101129.66;;;18.46;69.18
67109;BME280;54027;50.786;7.058;2022-08-27T06:06:49;101136.63;;;18.47;68.95
67109;BME280;54027;50.786;7.058;2022-08-27T06:09:16;101132.25;;;18.48;68.13
67109;BME280;54027;50.786;7.058;2022-08-27T06:11:42;101136.75;;;18.44;68.50
67109;BME280;54027;50.786;7.058;2022-08-27T06:14:08;101135.91;;;18.44;69.09
67109;BME280;54027;50.786;7.058;2022-08-27T06:16:35;101138.97;;;18.35;69.21
67109;BME280;54027;50.786;7.058;2022-08-27T06:19:00;101139.09;;;18.32;69.52
67109;BME280;54027;50.786;7.058;2022-08-27T06:21:26;101142.22;;;18.40;69.27
67109;BME280;54027;50.786;7.058;2022-08-27T06:23:52;101141.44;;;18.38;69.05
67109;BME280;54027;50.786;7.058;2022-08-27T06:26:18;101140.88;;;18.31;69.00
67109;BME280;54027;50.786;7.058;2022-08-27T06:28:44;101153.59;;;18.40;68.59
67109;BME280;54027;50.786;7.058;2022-08-27T06:31:11;101149.34;;;18.38;69.03
67109;BME280;54027;50.786;7.058;2022-08-27T06:33:38;101142.22;;;18.40;68.56
67109;BME280;54027;50.786;7.058;2022-08-27T06:36:04;101149.09;;;18.42;68.94
67109;BME280;54027;50.786;7.058;2022-08-27T06:38:31;101151.97;;;18.38;69.21
67109;BME280;54027;50.786;7.058;2022-08-27T06:40:56;101156.81;;;18.47;68.89
67109;BME280;54027;50.786;7.058;2022-08-27T06:43:22;101155.38;;;18.40;68.82
67109;BME280;54027;50.786;7.058;2022-08-27T06:45:48;101156.88;;;18.27;69.31
67109;BME280;54027;50.786;7.058;2022-08-27T06:48:13;101155.88;;;18.29;69.05
67109;BME280;54027;50.786;7.058;2022-08-27T06:50:40;101146.38;;;18.27;68.53
67109;BME280;54027;50.786;7.058;2022-08-27T06:53:05;101156.03;;;18.26;68.81
67109;BME280;54027;50.786;7.058;2022-08-27T06:55:31;101156.38;;;18.18;69.22
67109;BME280;54027;50.786;7.058;2022-08-27T06:57:56;101153.59;;;18.22;68.98
67109;BME280;54027;50.786;7.058;2022-08-27T07:00:21;101153.31;;;18.28;69.05
67109;BME280;54027;50.786;7.058;2022-08-27T07:02:47;101154.69;;;18.18;69.05
67109;BME280;54027;50.786;7.058;2022-08-27T07:05:14;101155.69;;;18.15;69.04
67109;BME280;54027;50.786;7.058;2022-08-27T07:07:39;101156.31;;;18.20;69.27
67109;BME280;54027;50.786;7.058;2022-08-27T07:10:05;101157.03;;;18.24;69.34
67109;BME280;54027;50.786;7.058;2022-08-27T07:12:31;101160.22;;;18.11;68.91
67109;BME280;54027;50.786;7.058;2022-08-27T07:14:57;101154.97;;;18.11;69.18
67109;BME280;54027;50.786;7.058;2022-08-27T07:17:22;101159.38;;;18.11;69.29
67109;BME280;54027;50.786;7.058;2022-08-27T07:19:47;101151.25;;;18.15;69.10
67109;BME280;54027;50.786;7.058;2022-08-27T07:22:13;101160.34;;;18.08;69.14
67109;BME280;54027;50.786;7.058;2022-08-27T07:24:38;101152.38;;;18.10;69.27
67109;BME280;54027;50.786;7.058;2022-08-27T07:27:04;101155.59;;;18.16;69.20
67109;BME280;54027;50.786;7.058;2022-08-27T07:29:29;101153.53;;;18.23;68.81
67109;BME280;54027;50.786;7.058;2022-08-27T07:31:55;101157.03;;;18.24;68.93
67109;BME280;54027;50.786;7.058;2022-08-27T07:34:20;101153.88;;;18.15;69.39
67109;BME280;54027;50.786;7.058;2022-08-27T07:36:45;101154.81;;;18.14;69.56
67109;BME280;54027;50.786;7.058;2022-08-27T07:39:11;101157.44;;;18.14;69.46
67109;BME280;54027;50.786;7.058;2022-08-27T07:41:37;101157.94;;;18.23;69.00
67109;BME280;54027;50.786;7.058;2022-08-27T07:44:23;101158.22;;;18.16;69.48
67109;BME280;54027;50.786;7.058;2022-08-27T07:46:49;101160.00;;;17.97;70.03
67109;BME280;54027;50.786;7.058;2022-08-27T07:49:15;101164.84;;;18.06;69.70
67109;BME280;54027;50.786;7.058;2022-08-27T07:51:41;101168.75;;;18.16;69.69
67109;BME280;54027;50.786;7.058;2022-08-27T07:54:11;101161.63;;;18.18;69.28
67109;BME280;54027;50.786;7.058;2022-08-27T07:56:36;101163.06;;;18.26;69.21
67109;BME280;54027;50.786;7.058;2022-08-27T07:59:02;101168.16;;;18.10;69.54
67109;BME280;54027;50.786;7.058;2022-08-27T08:01:28;101171.88;;;18.06;69.63
67109;BME280;54027;50.786;7.058;2022-08-27T08:03:53;101175.06;;;18.12;69.52
67109;BME280;54027;50.786;7.058;2022-08-27T08:06:19;101175.91;;;18.13;69.65
67109;BME280;54027;50.786;7.058;2022-08-27T08:08:45;101178.22;;;18.21;69.36
67109;BME280;54027;50.786;7.058;2022-08-27T08:11:11;101176.97;;;18.28;68.80
67109;BME280;54027;50.786;7.058;2022-08-27T08:13:37;101179.88;;;18.22;69.12
67109;BME280;54027;50.786;7.058;2022-08-27T08:16:03;101177.53;;;18.15;69.04
67109;BME280;54027;50.786;7.058;2022-08-27T08:18:28;101179.75;;;18.25;68.82
67109;BME280;54027;50.786;7.058;2022-08-27T08:21:00;101181.72;;;18.01;69.92
67109;BME280;54027;50.786;7.058;2022-08-27T08:23:26;101182.81;;;18.15;69.60
67109;BME280;54027;50.786;7.058;2022-08-27T08:25:52;101190.78;;;18.14;69.64
67109;BME280;54027;50.786;7.058;2022-08-27T08:28:18;101191.69;;;18.13;69.50
67109;BME280;54027;50.786;7.058;2022-08-27T08:30:43;101189.13;;;18.11;69.58
67109;BME280;54027;50.786;7.058;2022-08-27T08:33:10;101189.34;;;18.26;69.25
67109;BME280;54027;50.786;7.058;2022-08-27T08:35:38;101184.50;;;18.16;69.41
67109;BME280;54027;50.786;7.058;2022-08-27T08:38:03;101182.59;;;18.20;69.64
67109;BME280;54027;50.786;7.058;2022-08-27T08:40:34;101191.94;;;18.27;68.72
67109;BME280;54027;50.786;7.058;2022-08-27T08:43:00;101185.50;;;18.14;68.82
67109;BME280;54027;50.786;7.058;2022-08-27T08:45:28;101194.75;;;18.23;68.98
67109;BME280;54027;50.786;7.058;2022-08-27T08:53:35;101198.56;;;18.15;68.85
67109;BME280;54027;50.786;7.058;2022-08-27T08:56:03;101204.38;;;18.24;68.11
67109;BME280;54027;50.786;7.058;2022-08-27T08:58:43;101206.00;;;18.26;67.81
67109;BME280;54027;50.786;7.058;2022-08-27T09:01:10;101205.63;;;18.15;68.79
67109;BME280;54027;50.786;7.058;2022-08-27T09:03:39;101213.78;;;18.28;68.50
67109;BME280;54027;50.786;7.058;2022-08-27T09:08:32;101218.97;;;18.10;69.24
67109;BME280;54027;50.786;7.058;2022-08-27T09:11:02;101211.59;;;18.18;68.86
67109;BME280;54027;50.786;7.058;2022-08-27T09:16:07;101212.25;;;18.24;68.59
67109;BME280;54027;50.786;7.058;2022-08-27T09:18:34;101209.19;;;18.14;69.43
67109;BME280;54027;50.786;7.058;2022-08-27T09:21:04;101215.44;;;18.11;69.11
67109;BME280;54027;50.786;7.058;2022-08-27T09:25:57;101210.59;;;18.02;69.77
67109;BME280;54027;50.786;7.058;2022-08-27T09:28:24;101220.06;;;18.06;69.72
67109;BME280;54027;50.786;7.058;2022-08-27T09:31:10;101219.34;;;18.22;69.75
67109;BME280;54027;50.786;7.058;2022-08-27T09:33:36;101219.59;;;18.15;69.26
67109;BME280;54027;50.786;7.058;2022-08-27T09:36:02;101221.97;;;18.03;69.73
67109;BME280;54027;50.786;7.058;2022-08-27T09:38:29;101215.22;;;18.16;68.91
67109;BME280;54027;50.786;7.058;2022-08-27T09:40:57;101218.34;;;18.05;69.58
67109;BME280;54027;50.786;7.058;2022-08-27T09:43:25;101219.56;;;18.17;69.46
67109;BME280;54027;50.786;7.058;2022-08-27T09:46:05;101220.06;;;18.25;69.17
67109;BME280;54027;50.786;7.058;2022-08-27T09:48:38;101222.00;;;18.01;70.28
67109;BME280;54027;50.786;7.058;2022-08-27T09:51:08;101225.94;;;18.11;70.74
67109;BME280;54027;50.786;7.058;2022-08-27T09:56:04;101236.97;;;18.20;70.16
67109;BME280;54027;50.786;7.058;2022-08-27T10:01:16;101239.88;;;18.13;70.88
67109;BME280;54027;50.786;7.058;2022-08-27T10:03:41;101233.44;;;18.21;70.63
67109;BME280;54027;50.786;7.058;2022-08-27T10:06:07;101234.44;;;18.18;70.90
67109;BME280;54027;50.786;7.058;2022-08-27T10:08:45;101228.44;;;18.14;70.35
67109;BME280;54027;50.786;7.058;2022-08-27T10:21:09;101230.53;;;18.27;70.15
67109;BME280;54027;50.786;7.058;2022-08-27T10:26:10;101236.97;;;18.20;70.71
67109;BME280;54027;50.786;7.058;2022-08-27T10:31:15;101232.44;;;18.23;70.62
67109;BME280;54027;50.786;7.058;2022-08-27T10:38:52;101237.31;;;18.31;70.29
67109;BME280;54027;50.786;7.058;2022-08-27T10:54:25;101227.19;;;18.42;71.07
67109;BME280;54027;50.786;7.058;2022-08-27T10:57:07;101225.84;;;18.52;71.60
67109;BME280;54027;50.786;7.058;2022-08-27T10:59:48;101229.44;;;18.51;71.89
67109;BME280;54027;50.786;7.058;2022-08-27T11:05:02;101225.66;;;18.56;70.28
67109;BME280;54027;50.786;7.058;2022-08-27T11:07:35;101232.59;;;18.57;70.13
67109;BME280;54027;50.786;7.058;2022-08-27T11:10:03;101236.66;;;18.64;70.93
67109;BME280;54027;50.786;7.058;2022-08-27T11:12:32;101225.66;;;18.56;69.79
67109;BME280;54027;50.786;7.058;2022-08-27T11:15:00;101239.88;;;18.52;69.56
67109;BME280;54027;50.786;7.058;2022-08-27T11:17:32;101235.25;;;18.57;69.33
67109;BME280;54027;50.786;7.058;2022-08-27T11:25:02;101225.91;;;18.69;69.03
67109;BME280;54027;50.786;7.058;2022-08-27T11:27:30;101216.03;;;18.74;69.16
67109;BME280;54027;50.786;7.058;2022-08-27T11:29:59;101217.44;;;18.81;67.95
67109;BME280;54027;50.786;7.058;2022-08-27T11:35:00;101219.91;;;18.84;67.03
67109;BME280;54027;50.786;7.058;2022-08-27T11:42:56;101224.56;;;18.60;67.64
67109;BME280;54027;50.786;7.058;2022-08-27T11:45:29;101224.84;;;18.73;67.18
67109;BME280;54027;50.786;7.058;2022-08-27T11:47:59;101224.84;;;18.73;66.75
67109;BME280;54027;50.786;7.058;2022-08-27T11:50:26;101221.88;;;18.62;66.88
67109;BME280;54027;50.786;7.058;2022-08-27T11:52:53;101223.22;;;18.70;65.98
67109;BME280;54027;50.786;7.058;2022-08-27T11:57:45;101220.44;;;18.74;65.75
67109;BME280;54027;50.786;7.058;2022-08-27T12:00:12;101219.38;;;18.78;65.32
67109;BME280;54027;50.786;7.058;2022-08-27T12:02:39;101222.94;;;18.77;65.34
67109;BME280;54027;50.786;7.058;2022-08-27T12:07:51;101216.09;;;18.73;65.00
67109;BME280;54027;50.786;7.058;2022-08-27T12:10:44;101217.19;;;18.68;65.28
67109;BME280;54027;50.786;7.058;2022-08-27T12:13:08;101224.78;;;18.75;65.01
67109;BME280;54027;50.786;7.058;2022-08-27T12:21:10;101225.84;;;18.70;65.19
67109;BME280;54027;50.786;7.058;2022-08-27T12:28:48;101232.16;;;18.85;64.56
67109;BME280;54027;50.786;7.058;2022-08-27T12:31:19;101227.75;;;18.86;64.33
67109;BME280;54027;50.786;7.058;2022-08-27T12:33:50;101228.91;;;18.80;63.89
67109;BME280;54027;50.786;7.058;2022-08-27T12:36:21;101227.06;;;18.82;64.17
67109;BME280;54027;50.786;7.058;2022-08-27T12:38:50;101234.19;;;18.80;64.52
67109;BME280;54027;50.786;7.058;2022-08-27T12:41:24;101229.69;;;18.82;64.11
67109;BME280;54027;50.786;7.058;2022-08-27T12:44:00;101222.22;;;18.73;64.18
67109;BME280;54027;50.786;7.058;2022-08-27T12:46:25;101216.47;;;18.84;63.94
67109;BME280;54027;50.786;7.058;2022-08-27T12:48:56;101216.75;;;18.78;64.08
67109;BME280;54027;50.786;7.058;2022-08-27T12:51:34;101221.06;;;18.79;64.70
67109;BME280;54027;50.786;7.058;2022-08-27T13:04:23;101205.59;;;18.90;62.95
67109;BME280;54027;50.786;7.058;2022-08-27T13:06:50;101205.56;;;18.91;62.63
67109;BME280;54027;50.786;7.058;2022-08-27T13:09:15;101204.47;;;18.95;62.70
67109;BME280;54027;50.786;7.058;2022-08-27T13:11:49;101209.38;;;19.03;62.91
67109;BME280;54027;50.786;7.058;2022-08-27T13:14:20;101210.22;;;19.03;62.48
67109;BME280;54027;50.786;7.058;2022-08-27T13:16:48;101203.47;;;18.98;63.02
67109;BME280;54027;50.786;7.058;2022-08-27T13:19:18;101202.31;;;19.03;62.22
67109;BME280;54027;50.786;7.058;2022-08-27T13:21:46;101203.19;;;19.04;62.28
67109;BME280;54027;50.786;7.058;2022-08-27T13:24:12;101200.53;;;19.04;62.31
67109;BME280;54027;50.786;7.058;2022-08-27T13:26:38;101201.31;;;19.06;62.19
67109;BME280;54027;50.786;7.058;2022-08-27T13:29:04;101197.34;;;18.97;62.07
67109;BME280;54027;50.786;7.058;2022-08-27T13:31:30;101195.19;;;19.05;61.70
67109;BME280;54027;50.786;7.058;2022-08-27T13:33:56;101193.25;;;19.09;62.42
67109;BME280;54027;50.786;7.058;2022-08-27T13:36:33;101186.22;;;19.09;61.65
67109;BME280;54027;50.786;7.058;2022-08-27T13:39:03;101185.22;;;19.12;62.45
67109;BME280;54027;50.786;7.058;2022-08-27T13:41:33;101190.03;;;19.21;62.29
67109;BME280;54027;50.786;7.058;2022-08-27T13:44:09;101183.03;;;19.20;61.55
67109;BME280;54027;50.786;7.058;2022-08-27T13:46:42;101186.78;;;19.16;61.14
67109;BME280;54027;50.786;7.058;2022-08-27T13:49:11;101183.03;;;19.20;60.98
67109;BME280;54027;50.786;7.058;2022-08-27T13:51:38;101175.78;;;19.25;60.76
67109;BME280;54027;50.786;7.058;2022-08-27T13:54:07;101176.53;;;19.27;60.47
67109;BME280;54027;50.786;7.058;2022-08-27T13:59:20;101184.44;;;19.27;60.22
67109;BME280;54027;50.786;7.058;2022-08-27T14:04:20;101181.75;;;19.29;60.40
67109;BME280;54027;50.786;7.058;2022-08-27T14:06:46;101182.59;;;19.29;60.67
67109;BME280;54027;50.786;7.058;2022-08-27T14:09:17;101180.63;;;19.34;60.64
67109;BME280;54027;50.786;7.058;2022-08-27T14:11:42;101186.66;;;19.36;60.58
67109;BME280;54027;50.786;7.058;2022-08-27T14:14:09;101181.59;;;19.32;60.61
67109;BME280;54027;50.786;7.058;2022-08-27T14:16:34;101179.91;;;19.31;59.97
67109;BME280;54027;50.786;7.058;2022-08-27T14:19:09;101183.41;;;19.31;59.83
67109;BME280;54027;50.786;7.058;2022-08-27T14:21:36;101178.03;;;19.33;60.38
67109;BME280;54027;50.786;7.058;2022-08-27T14:24:02;101181.22;;;19.39;60.40
67109;BME280;54027;50.786;7.058;2022-08-27T14:26:28;101173.06;;;19.44;59.71
67109;BME280;54027;50.786;7.058;2022-08-27T14:28:53;101177.56;;;19.42;60.37
67109;BME280;54027;50.786;7.058;2022-08-27T14:31:19;101178.59;;;19.39;59.57
67109;BME280;54027;50.786;7.058;2022-08-27T14:33:45;101183.00;;;19.39;59.71